Time;durP1;ratioP1;P1;durP2;ratioP2;P2;SDS_P1;SDS_P2;PMS_P1;PMS_P2;Temp;Humidity;BMP_temperature;BMP_pressure;BME280_temperature;BME280_humidity;BME280_pressure;Samples;Min_cycle;Max_cycle;Signal;HPM_P1;HPM_P2
2021/01/19 00:01:27;;;;;;;18.90;11.67;;;;;;;;;;5099191;28;20478;-74
2021/01/19 00:03:54;;;;;;;18.10;10.80;;;;;;;;;;5099275;28;20554;-73
2021/01/19 00:06:23;;;;;;;17.43;10.43;;;;;;;;;;5099129;28;20456;-73
2021/01/19 00:08:50;;;;;;;21.13;12.17;;;;;;;;;;5099712;28;20744;-73
2021/01/19 00:11:17;;;;;;;21.87;11.00;;;;;;;;;;5099016;28;20448;-73
2021/01/19 00:13:47;;;;;;;13.87;10.37;;;;;;;;;;5098065;28;21070;-73
2021/01/19 00:16:14;;;;;;;20.23;12.47;;;;;;;;;;5099382;28;20452;-73
2021/01/19 00:18:42;;;;;;;16.60;11.50;;;;;;;;;;5098044;28;20515;-74
2021/01/19 00:21:09;;;;;;;16.80;9.30;;;;;;;;;;5098536;28;20455;-73
2021/01/19 00:23:37;;;;;;;15.53;11.17;;;;;;;;;;5098866;28;20612;-73
2021/01/19 00:26:05;;;;;;;17.50;11.30;;;;;;;;;;5097601;28;20495;-73
2021/01/19 00:28:32;;;;;;;17.10;10.73;;;;;;;;;;5099418;28;20740;-73
2021/01/19 00:31:00;;;;;;;18.30;10.80;;;;;;;;;;5098116;28;20552;-73
2021/01/19 00:33:28;;;;;;;20.27;12.07;;;;;;;;;;5098053;28;20607;-71
2021/01/19 00:35:56;;;;;;;16.27;11.00;;;;;;;;;;5098327;28;20504;-73
2021/01/19 00:38:23;;;;;;;20.33;9.70;;;;;;;;;;5099367;28;20721;-72
2021/01/19 00:40:51;;;;;;;23.97;11.80;;;;;;;;;;5099057;28;20504;-72
2021/01/19 00:43:19;;;;;;;20.70;11.67;;;;;;;;;;5077591;28;20471;-72
2021/01/19 00:45:46;;;;;;;20.70;11.40;;;;;;;;;;5095403;28;20485;-72
2021/01/19 00:48:13;;;;;;;21.10;11.23;;;;;;;;;;5098223;28;20460;-72
2021/01/19 00:50:41;;;;;;;19.67;13.40;;;;;;;;;;5098783;28;20867;-72
2021/01/19 00:53:08;;;;;;;24.30;10.00;;;;;;;;;;5098503;28;20452;-72
2021/01/19 00:55:36;;;;;;;16.30;8.90;;;;;;;;;;5098537;28;20547;-72
2021/01/19 00:58:04;;;;;;;19.80;12.00;;;;;;;;;;5098212;28;20464;-73
2021/01/19 01:00:35;;;;;;;17.10;10.40;;;;;;;;;;5098610;28;20746;-72
2021/01/19 01:03:02;;;;;;;17.27;10.97;;;;;;;;;;5097895;28;20552;-72
2021/01/19 01:05:29;;;;;;;15.53;10.07;;;;;;;;;;5098736;28;20455;-72
2021/01/19 01:07:58;;;;;;;14.80;9.30;;;;;;;;;;5098304;28;20467;-72
2021/01/19 01:10:25;;;;;;;21.50;12.60;;;;;;;;;;5098338;28;20471;-72
2021/01/19 01:12:53;;;;;;;19.67;12.27;;;;;;;;;;5094282;28;20495;-72
2021/01/19 01:15:25;;;;;;;18.10;10.60;;;;;;;;;;5096707;28;20966;-72
2021/01/19 01:17:53;;;;;;;17.80;11.17;;;;;;;;;;5097780;28;20464;-73
2021/01/19 01:20:20;;;;;;;19.30;12.20;;;;;;;;;;5098026;28;20463;-72
2021/01/19 01:22:49;;;;;;;16.23;11.47;;;;;;;;;;5097257;28;20480;-72
2021/01/19 01:25:16;;;;;;;21.13;11.27;;;;;;;;;;5098489;28;21010;-73
2021/01/19 01:27:44;;;;;;;23.70;13.90;;;;;;;;;;5096868;28;20737;-73
2021/01/19 01:30:13;;;;;;;16.87;10.90;;;;;;;;;;5097456;28;20481;-73
2021/01/19 01:32:42;;;;;;;17.20;11.40;;;;;;;;;;5097776;28;20456;-73
2021/01/19 01:35:09;;;;;;;18.03;13.27;;;;;;;;;;5097552;28;20814;-73
2021/01/19 01:37:37;;;;;;;20.30;11.90;;;;;;;;;;5097527;28;20460;-73
2021/01/19 01:40:05;;;;;;;19.23;12.20;;;;;;;;;;5097853;28;20818;-73
2021/01/19 01:42:32;;;;;;;18.73;11.47;;;;;;;;;;5097314;28;20659;-73
2021/01/19 01:45:00;;;;;;;25.83;12.87;;;;;;;;;;5096940;28;20526;-73
2021/01/19 01:47:29;;;;;;;20.70;9.87;;;;;;;;;;5097151;28;20460;-73
2021/01/19 01:49:57;;;;;;;18.33;11.10;;;;;;;;;;5096979;28;20463;-73
2021/01/19 01:52:25;;;;;;;22.67;13.67;;;;;;;;;;5097360;28;20945;-73
2021/01/19 01:54:52;;;;;;;19.53;13.00;;;;;;;;;;5096371;28;20491;-73
2021/01/19 01:57:20;;;;;;;27.20;15.60;;;;;;;;;;5097545;28;20594;-73
2021/01/19 01:59:49;;;;;;;22.23;14.20;;;;;;;;;;5097271;28;20448;-73
2021/01/19 02:02:17;;;;;;;16.60;10.83;;;;;;;;;;5096468;28;20816;-73
2021/01/19 02:04:46;;;;;;;20.57;13.00;;;;;;;;;;5097443;28;20468;-73
2021/01/19 02:07:19;;;;;;;19.00;12.60;;;;;;;;;;5096566;28;20456;-73
2021/01/19 02:09:51;;;;;;;21.50;12.40;;;;;;;;;;5097391;28;20547;-73
2021/01/19 02:12:22;;;;;;;23.30;12.97;;;;;;;;;;5096694;28;20456;-73
2021/01/19 02:14:56;;;;;;;19.97;12.50;;;;;;;;;;5096361;28;20521;-73
2021/01/19 02:17:27;;;;;;;18.80;11.53;;;;;;;;;;5097074;28;20539;-73
2021/01/19 02:20:12;;;;;;;18.30;13.90;;;;;;;;;;5096564;28;20525;-73
2021/01/19 02:22:51;;;;;;;25.17;13.80;;;;;;;;;;5097031;28;20455;-73
2021/01/19 02:28:31;;;;;;;20.80;13.70;;;;;;;;;;5071195;28;20616;-73
2021/01/19 02:31:22;;;;;;;26.33;14.57;;;;;;;;;;5096831;28;20459;-73
2021/01/19 02:33:55;;;;;;;21.13;15.00;;;;;;;;;;5096174;28;20904;-73
2021/01/19 02:36:28;;;;;;;24.77;16.00;;;;;;;;;;5096742;28;20448;-73
2021/01/19 02:38:57;;;;;;;24.93;15.70;;;;;;;;;;5096382;28;20463;-74
2021/01/19 02:41:24;;;;;;;28.00;14.63;;;;;;;;;;5096322;28;20456;-74
2021/01/19 02:43:57;;;;;;;26.97;15.50;;;;;;;;;;5096073;28;20555;-73
2021/01/19 02:46:26;;;;;;;26.57;16.50;;;;;;;;;;5096069;28;20453;-73
2021/01/19 02:48:55;;;;;;;28.93;17.77;;;;;;;;;;5096642;28;20464;-73
2021/01/19 02:51:22;;;;;;;33.70;18.10;;;;;;;;;;5096486;28;20467;-74
2021/01/19 02:53:50;;;;;;;29.00;18.07;;;;;;;;;;5092038;28;20483;-73
2021/01/19 02:56:24;;;;;;;31.83;17.53;;;;;;;;;;5096770;28;20464;-73
2021/01/19 02:58:58;;;;;;;29.30;17.70;;;;;;;;;;5096518;28;20463;-73
2021/01/19 03:01:27;;;;;;;26.67;16.43;;;;;;;;;;5096340;28;20863;-73
2021/01/19 03:03:55;;;;;;;28.00;16.63;;;;;;;;;;5096649;28;20580;-73
2021/01/19 03:06:24;;;;;;;28.20;16.80;;;;;;;;;;5096266;28;20463;-73
2021/01/19 03:08:51;;;;;;;26.67;15.90;;;;;;;;;;5096934;28;20448;-73
2021/01/19 03:11:20;;;;;;;27.10;16.60;;;;;;;;;;5096092;28;20752;-73
2021/01/19 03:13:47;;;;;;;25.07;16.27;;;;;;;;;;5085461;28;20929;-73
2021/01/19 03:16:16;;;;;;;32.77;18.90;;;;;;;;;;5095477;28;20474;-73
2021/01/19 03:18:44;;;;;;;29.43;16.97;;;;;;;;;;5096204;28;20534;-73
2021/01/19 03:21:13;;;;;;;27.03;14.80;;;;;;;;;;5095966;28;20521;-73
2021/01/19 03:23:41;;;;;;;23.60;15.80;;;;;;;;;;5096091;28;20563;-73
2021/01/19 03:26:09;;;;;;;25.60;15.57;;;;;;;;;;5096412;28;20746;-73
2021/01/19 03:28:37;;;;;;;22.47;13.97;;;;;;;;;;5096335;28;20513;-73
2021/01/19 03:31:05;;;;;;;26.93;15.57;;;;;;;;;;5096265;28;20508;-73
2021/01/19 03:33:33;;;;;;;25.97;15.60;;;;;;;;;;5095794;28;20476;-73
2021/01/19 03:36:00;;;;;;;26.87;15.53;;;;;;;;;;5096215;28;20480;-73
2021/01/19 03:38:29;;;;;;;23.97;16.43;;;;;;;;;;5096180;28;20448;-73
2021/01/19 03:40:56;;;;;;;27.23;16.27;;;;;;;;;;5095931;28;20553;-73
2021/01/19 03:43:24;;;;;;;23.57;14.80;;;;;;;;;;5082563;28;20521;-73
2021/01/19 03:45:51;;;;;;;26.50;15.93;;;;;;;;;;5095914;28;20567;-73
2021/01/19 03:48:18;;;;;;;27.87;16.97;;;;;;;;;;5096133;28;20469;-73
2021/01/19 03:50:46;;;;;;;24.30;17.10;;;;;;;;;;5095682;28;20479;-73
2021/01/19 03:53:13;;;;;;;29.00;16.83;;;;;;;;;;5095470;28;21162;-73
2021/01/19 03:55:42;;;;;;;25.80;16.10;;;;;;;;;;5095840;28;20475;-73
2021/01/19 03:58:10;;;;;;;24.30;16.80;;;;;;;;;;5095176;28;20466;-73
2021/01/19 04:00:37;;;;;;;25.83;16.60;;;;;;;;;;5096096;28;20790;-73
2021/01/19 04:03:05;;;;;;;24.00;15.67;;;;;;;;;;5095145;28;20914;-73
2021/01/19 04:05:33;;;;;;;26.40;15.20;;;;;;;;;;5095763;28;20472;-73
2021/01/19 04:08:00;;;;;;;25.30;15.70;;;;;;;;;;5095029;28;20464;-73
2021/01/19 04:10:28;;;;;;;27.20;17.37;;;;;;;;;;5095156;28;20526;-73
2021/01/19 04:12:56;;;;;;;23.87;16.17;;;;;;;;;;5095072;28;20470;-73
2021/01/19 04:15:25;;;;;;;21.60;16.27;;;;;;;;;;5094819;28;21171;-73
2021/01/19 04:17:53;;;;;;;24.50;16.73;;;;;;;;;;5096910;28;20455;-73
2021/01/19 04:20:20;;;;;;;25.33;16.07;;;;;;;;;;5098011;28;20756;-73
2021/01/19 04:22:48;;;;;;;23.50;14.83;;;;;;;;;;5098967;28;20456;-73
2021/01/19 04:25:15;;;;;;;24.90;16.07;;;;;;;;;;5099640;28;20470;-73
2021/01/19 04:27:43;;;;;;;27.20;15.97;;;;;;;;;;5098384;28;20456;-73
2021/01/19 04:30:12;;;;;;;24.23;15.60;;;;;;;;;;5098706;28;20713;-73
2021/01/19 04:32:39;;;;;;;23.77;15.50;;;;;;;;;;5098134;28;20459;-73
2021/01/19 04:35:07;;;;;;;24.90;17.20;;;;;;;;;;5098704;28;20914;-73
2021/01/19 04:37:35;;;;;;;24.20;17.13;;;;;;;;;;5098579;28;20451;-73
2021/01/19 04:40:04;;;;;;;38.80;18.70;;;;;;;;;;5098164;28;20728;-73
2021/01/19 04:42:33;;;;;;;23.13;16.13;;;;;;;;;;5098487;28;20467;-73
2021/01/19 04:45:01;;;;;;;27.97;16.00;;;;;;;;;;5098794;28;20852;-73
2021/01/19 04:47:29;;;;;;;22.03;14.20;;;;;;;;;;5098979;28;20560;-74
2021/01/19 04:50:00;;;;;;;27.23;17.43;;;;;;;;;;5098596;28;20467;-74
2021/01/19 04:52:28;;;;;;;24.80;17.20;;;;;;;;;;5098793;28;20463;-73
2021/01/19 04:55:04;;;;;;;28.83;17.10;;;;;;;;;;5099010;28;20497;-73
2021/01/19 04:57:34;;;;;;;28.47;18.90;;;;;;;;;;5098361;28;20712;-73
2021/01/19 05:00:02;;;;;;;24.33;14.17;;;;;;;;;;5098812;28;20491;-73
2021/01/19 05:02:44;;;;;;;20.40;16.60;;;;;;;;;;5096731;28;20467;-73
2021/01/19 05:05:32;;;;;;;24.40;17.33;;;;;;;;;;5081379;28;20512;-74
2021/01/19 05:08:20;;;;;;;26.23;16.70;;;;;;;;;;5091263;28;20588;-74
2021/01/19 05:10:55;;;;;;;25.03;17.37;;;;;;;;;;5072858;28;20456;-74
2021/01/19 05:13:29;;;;;;;26.80;18.30;;;;;;;;;;5098615;28;20486;-74
2021/01/19 05:15:58;;;;;;;26.83;17.07;;;;;;;;;;5098399;28;20459;-74
2021/01/19 05:18:29;;;;;;;27.53;17.57;;;;;;;;;;5098606;28;20489;-74
2021/01/19 05:21:01;;;;;;;28.13;17.40;;;;;;;;;;5098384;28;20527;-74
2021/01/19 05:23:28;;;;;;;26.90;16.73;;;;;;;;;;5098128;28;20499;-74
2021/01/19 05:25:57;;;;;;;32.93;19.40;;;;;;;;;;5098167;28;20773;-74
2021/01/19 05:28:24;;;;;;;25.37;17.93;;;;;;;;;;5097740;28;20530;-74
2021/01/19 05:30:52;;;;;;;25.10;17.50;;;;;;;;;;5097987;28;20474;-73
2021/01/19 05:33:20;;;;;;;22.33;14.90;;;;;;;;;;5097528;28;20517;-73
2021/01/19 05:35:47;;;;;;;23.47;16.27;;;;;;;;;;5097604;28;20470;-73
2021/01/19 05:38:15;;;;;;;23.43;16.50;;;;;;;;;;5097288;28;20456;-73
2021/01/19 05:40:45;;;;;;;27.80;17.30;;;;;;;;;;5097532;28;20464;-73
2021/01/19 05:43:15;;;;;;;23.20;16.47;;;;;;;;;;5096458;28;20473;-73
2021/01/19 05:45:51;;;;;;;26.20;17.63;;;;;;;;;;5097239;28;20452;-73
2021/01/19 05:48:18;;;;;;;27.50;17.27;;;;;;;;;;5096546;28;20605;-73
2021/01/19 05:50:46;;;;;;;29.33;18.73;;;;;;;;;;5096926;28;20456;-74
2021/01/19 05:53:18;;;;;;;26.07;16.10;;;;;;;;;;5096864;28;20452;-74
2021/01/19 05:55:46;;;;;;;24.87;16.33;;;;;;;;;;5097165;28;20512;-73
2021/01/19 05:58:19;;;;;;;25.47;16.10;;;;;;;;;;5097290;28;20784;-72
2021/01/19 06:00:48;;;;;;;19.23;13.80;;;;;;;;;;5096965;28;20471;-73
2021/01/19 06:03:17;;;;;;;19.57;14.63;;;;;;;;;;5096327;28;20551;-73
2021/01/19 06:05:44;;;;;;;25.90;15.50;;;;;;;;;;5096708;28;20510;-73
2021/01/19 06:08:12;;;;;;;20.00;15.00;;;;;;;;;;5096973;28;20740;-73
2021/01/19 06:10:40;;;;;;;21.57;14.00;;;;;;;;;;5096593;28;20475;-73
2021/01/19 06:13:16;;;;;;;20.77;13.80;;;;;;;;;;5096655;28;20464;-73
2021/01/19 06:15:53;;;;;;;18.47;12.97;;;;;;;;;;5096416;28;20495;-73
2021/01/19 06:18:21;;;;;;;14.07;10.90;;;;;;;;;;5096662;28;20509;-73
2021/01/19 06:20:48;;;;;;;17.10;12.80;;;;;;;;;;5096687;28;20501;-73
2021/01/19 06:23:16;;;;;;;15.77;11.13;;;;;;;;;;5095278;28;20543;-73
2021/01/19 06:25:43;;;;;;;17.60;11.30;;;;;;;;;;5095945;28;20463;-74
2021/01/19 06:28:11;;;;;;;13.60;9.80;;;;;;;;;;5095285;28;20464;-74
2021/01/19 06:30:39;;;;;;;16.17;11.10;;;;;;;;;;5094582;28;20460;-74
2021/01/19 06:33:07;;;;;;;13.07;9.77;;;;;;;;;;5094927;28;20447;-74
2021/01/19 06:35:41;;;;;;;13.40;9.90;;;;;;;;;;5095067;28;20556;-74
2021/01/19 06:38:08;;;;;;;10.73;8.10;;;;;;;;;;5094941;28;20458;-74
2021/01/19 06:40:36;;;;;;;12.47;8.03;;;;;;;;;;5094977;28;20895;-74
2021/01/19 06:43:05;;;;;;;14.03;9.00;;;;;;;;;;5093214;28;20452;-73
2021/01/19 06:45:33;;;;;;;12.50;9.10;;;;;;;;;;5095622;28;20880;-73
2021/01/19 06:48:02;;;;;;;10.90;8.67;;;;;;;;;;5095640;28;20543;-74
2021/01/19 06:50:34;;;;;;;11.70;9.27;;;;;;;;;;5094473;28;20475;-73
2021/01/19 06:53:13;;;;;;;11.13;6.87;;;;;;;;;;5075152;28;20459;-74
2021/01/19 06:55:45;;;;;;;12.27;8.50;;;;;;;;;;5074824;28;21024;-74
2021/01/19 06:58:18;;;;;;;12.10;7.67;;;;;;;;;;5074702;28;20507;-74
2021/01/19 07:00:49;;;;;;;13.50;9.10;;;;;;;;;;5075199;28;20456;-73
2021/01/19 07:03:26;;;;;;;12.53;8.13;;;;;;;;;;5075175;28;20552;-75
2021/01/19 07:05:57;;;;;;;9.10;7.03;;;;;;;;;;5077493;28;20469;-74
2021/01/19 07:08:42;;;;;;;13.93;8.20;;;;;;;;;;5074887;28;20799;-73
2021/01/19 07:11:17;;;;;;;7.93;5.77;;;;;;;;;;5060832;28;20544;-73
2021/01/19 07:13:48;;;;;;;12.80;7.93;;;;;;;;;;5073874;28;20451;-73
2021/01/19 07:16:23;;;;;;;12.80;8.70;;;;;;;;;;5073725;28;20719;-74
2021/01/19 07:19:05;;;;;;;13.67;7.53;;;;;;;;;;5073095;28;20460;-73
2021/01/19 07:21:47;;;;;;;9.93;7.00;;;;;;;;;;5073496;28;20547;-73
2021/01/19 07:24:18;;;;;;;9.90;7.13;;;;;;;;;;5073656;28;20476;-73
2021/01/19 07:26:47;;;;;;;12.87;6.63;;;;;;;;;;5072278;28;20473;-76
2021/01/19 07:29:17;;;;;;;9.30;6.67;;;;;;;;;;5074008;28;20457;-73
2021/01/19 07:31:44;;;;;;;9.07;5.90;;;;;;;;;;5085019;28;20507;-73
2021/01/19 07:34:18;;;;;;;9.60;5.90;;;;;;;;;;5094035;28;20479;-73
2021/01/19 07:36:54;;;;;;;11.13;7.57;;;;;;;;;;5095093;28;20471;-73
2021/01/19 07:39:33;;;;;;;9.40;6.20;;;;;;;;;;5095709;28;20468;-73
2021/01/19 07:42:13;;;;;;;9.60;7.03;;;;;;;;;;5094985;28;20460;-74
2021/01/19 07:44:42;;;;;;;9.93;6.50;;;;;;;;;;5095058;28;20492;-74
2021/01/19 07:47:11;;;;;;;7.03;5.03;;;;;;;;;;5093488;28;20460;-74
2021/01/19 07:49:40;;;;;;;7.30;5.90;;;;;;;;;;5094932;28;20529;-74
2021/01/19 07:52:14;;;;;;;6.97;4.67;;;;;;;;;;5095286;28;20463;-73
2021/01/19 07:54:42;;;;;;;13.20;6.10;;;;;;;;;;5097161;28;20513;-73
2021/01/19 07:57:15;;;;;;;7.97;5.10;;;;;;;;;;5098835;28;20577;-73
2021/01/19 07:59:44;;;;;;;4.53;3.80;;;;;;;;;;5098946;28;20457;-73
2021/01/19 08:02:22;;;;;;;4.90;4.00;;;;;;;;;;5098844;28;20463;-73
2021/01/19 08:04:59;;;;;;;6.57;5.30;;;;;;;;;;5098354;28;20554;-73
2021/01/19 08:07:38;;;;;;;10.03;5.90;;;;;;;;;;5097464;28;20440;-73
2021/01/19 08:10:05;;;;;;;7.40;4.80;;;;;;;;;;5098495;28;20540;-73
2021/01/19 08:12:37;;;;;;;8.10;5.43;;;;;;;;;;5098151;28;20459;-74
2021/01/19 08:15:06;;;;;;;6.17;4.17;;;;;;;;;;5098825;28;20495;-73
2021/01/19 08:17:37;;;;;;;5.67;4.00;;;;;;;;;;5098575;28;20464;-73
2021/01/19 08:20:09;;;;;;;6.50;3.47;;;;;;;;;;5097844;28;20456;-74
2021/01/19 08:22:37;;;;;;;6.40;4.03;;;;;;;;;;5097879;28;20462;-73
2021/01/19 08:25:11;;;;;;;4.50;2.93;;;;;;;;;;5097900;28;20876;-73
2021/01/19 08:27:39;;;;;;;5.23;3.40;;;;;;;;;;5098475;28;20455;-74
2021/01/19 08:30:10;;;;;;;4.67;3.10;;;;;;;;;;5098546;28;20551;-73
2021/01/19 08:32:40;;;;;;;5.47;3.87;;;;;;;;;;5094925;28;20464;-73
2021/01/19 08:35:08;;;;;;;4.57;3.60;;;;;;;;;;5098195;28;20483;-73
2021/01/19 08:37:37;;;;;;;4.43;3.30;;;;;;;;;;5097921;28;20460;-75
2021/01/19 08:40:04;;;;;;;5.47;2.80;;;;;;;;;;5098213;28;20826;-74
2021/01/19 08:42:33;;;;;;;5.47;3.27;;;;;;;;;;5098583;28;20491;-74
2021/01/19 08:45:01;;;;;;;4.93;2.70;;;;;;;;;;5097636;28;20502;-75
2021/01/19 08:47:29;;;;;;;5.60;3.80;;;;;;;;;;5097519;28;20874;-74
2021/01/19 08:49:59;;;;;;;4.03;3.10;;;;;;;;;;5097905;28;20911;-74
2021/01/19 08:52:27;;;;;;;4.90;3.27;;;;;;;;;;5097149;28;20493;-74
2021/01/19 08:54:59;;;;;;;4.87;3.23;;;;;;;;;;5096963;28;20480;-74
2021/01/19 08:57:29;;;;;;;6.57;3.30;;;;;;;;;;5097362;28;20470;-73
2021/01/19 08:59:56;;;;;;;6.23;3.40;;;;;;;;;;5097773;28;20495;-73
2021/01/19 09:02:31;;;;;;;4.53;3.10;;;;;;;;;;5097453;28;20464;-74
2021/01/19 09:04:58;;;;;;;5.93;3.47;;;;;;;;;;5095503;28;20460;-74
2021/01/19 09:07:30;;;;;;;5.17;2.67;;;;;;;;;;5097506;28;20459;-73
2021/01/19 09:09:58;;;;;;;5.03;4.10;;;;;;;;;;5097664;28;20630;-74
2021/01/19 09:12:26;;;;;;;4.40;3.20;;;;;;;;;;5089893;28;20468;-75
2021/01/19 09:14:54;;;;;;;3.90;2.50;;;;;;;;;;5086675;28;20476;-73
2021/01/19 09:17:25;;;;;;;3.73;3.23;;;;;;;;;;5097822;28;20480;-74
2021/01/19 09:20:05;;;;;;;3.27;2.10;;;;;;;;;;5097484;28;20460;-73
2021/01/19 09:22:33;;;;;;;6.00;3.13;;;;;;;;;;5097251;28;20517;-73
2021/01/19 09:25:11;;;;;;;6.33;4.10;;;;;;;;;;5097276;28;20447;-74
2021/01/19 09:27:39;;;;;;;6.47;2.97;;;;;;;;;;5097531;28;20939;-73
2021/01/19 09:30:07;;;;;;;5.23;3.10;;;;;;;;;;5095422;28;20542;-73
2021/01/19 09:32:35;;;;;;;5.67;3.27;;;;;;;;;;5080106;28;20463;-73
2021/01/19 09:35:04;;;;;;;3.93;2.60;;;;;;;;;;5085764;28;20484;-73
2021/01/19 09:37:31;;;;;;;5.90;3.10;;;;;;;;;;5077920;28;20457;-73
2021/01/19 09:39:59;;;;;;;5.70;3.07;;;;;;;;;;5076937;28;20468;-74
2021/01/19 09:42:29;;;;;;;5.43;2.53;;;;;;;;;;5077298;28;20464;-73
2021/01/19 09:44:57;;;;;;;5.20;1.87;;;;;;;;;;5076749;28;20456;-74
2021/01/19 09:47:28;;;;;;;5.20;3.43;;;;;;;;;;5077395;28;20464;-74
2021/01/19 09:49:59;;;;;;;2.90;2.20;;;;;;;;;;5076243;28;20526;-73
2021/01/19 09:52:35;;;;;;;16.03;9.50;;;;;;;;;;5075767;28;20499;-75
2021/01/19 09:55:12;;;;;;;19.43;11.43;;;;;;;;;;5076154;28;20579;-74
2021/01/19 09:57:41;;;;;;;6.40;4.00;;;;;;;;;;5077348;28;20499;-74
2021/01/19 10:00:36;;;;;;;14.97;8.30;;;;;;;;;;5077911;28;20453;-74
2021/01/19 10:03:29;;;;;;;13.10;6.30;;;;;;;;;;5076339;28;20469;-74
2021/01/19 10:06:13;;;;;;;10.60;7.53;;;;;;;;;;5072745;28;20464;-73
2021/01/19 10:08:45;;;;;;;15.80;9.60;;;;;;;;;;5077028;28;20453;-73
2021/01/19 10:11:13;;;;;;;5.90;3.80;;;;;;;;;;5075658;28;20464;-75
2021/01/19 10:13:48;;;;;;;3.30;2.27;;;;;;;;;;5077845;28;20442;-74
2021/01/19 10:16:15;;;;;;;4.17;2.50;;;;;;;;;;5077751;28;20466;-74
2021/01/19 10:18:45;;;;;;;4.10;2.77;;;;;;;;;;5075642;28;20735;-74
2021/01/19 10:21:13;;;;;;;3.70;2.20;;;;;;;;;;5077161;28;20899;-73
2021/01/19 10:23:41;;;;;;;4.47;3.03;;;;;;;;;;5075852;28;20471;-74
2021/01/19 10:26:10;;;;;;;2.60;1.53;;;;;;;;;;5075069;28;20464;-74
2021/01/19 10:28:39;;;;;;;4.60;2.73;;;;;;;;;;5075974;28;20991;-73
2021/01/19 10:31:17;;;;;;;3.10;2.20;;;;;;;;;;5075621;28;20468;-74
2021/01/19 10:33:55;;;;;;;3.97;2.70;;;;;;;;;;5075146;28;20841;-74
2021/01/19 10:36:24;;;;;;;6.00;2.67;;;;;;;;;;5077514;28;20556;-74
2021/01/19 10:38:51;;;;;;;4.13;2.70;;;;;;;;;;5075496;28;20476;-74
2021/01/19 10:41:25;;;;;;;3.70;1.90;;;;;;;;;;5077790;28;20501;-74
2021/01/19 10:43:57;;;;;;;4.30;3.27;;;;;;;;;;5076707;28;20456;-74
2021/01/19 10:46:31;;;;;;;4.87;1.50;;;;;;;;;;5094600;28;20460;-73
2021/01/19 10:49:08;;;;;;;2.40;1.50;;;;;;;;;;5097411;28;21087;-72
2021/01/19 10:51:46;;;;;;;2.73;1.40;;;;;;;;;;5096571;28;20475;-74
2021/01/19 10:54:15;;;;;;;1.90;1.30;;;;;;;;;;5097058;28;20479;-74
2021/01/19 10:56:46;;;;;;;3.40;2.07;;;;;;;;;;5096604;28;20537;-73
2021/01/19 10:59:14;;;;;;;4.40;1.60;;;;;;;;;;5096861;28;20456;-73
2021/01/19 11:01:42;;;;;;;4.80;1.40;;;;;;;;;;5096639;28;20626;-74
2021/01/19 11:04:30;;;;;;;2.33;1.23;;;;;;;;;;5091822;28;20456;-74
2021/01/19 11:07:09;;;;;;;2.47;1.67;;;;;;;;;;5094517;28;20456;-72
2021/01/19 11:09:45;;;;;;;3.73;1.70;;;;;;;;;;5096575;28;20512;-73
2021/01/19 11:12:13;;;;;;;2.63;1.33;;;;;;;;;;5096034;28;20486;-75
2021/01/19 11:14:40;;;;;;;2.80;1.60;;;;;;;;;;5093887;28;20938;-75
2021/01/19 11:17:16;;;;;;;2.93;1.43;;;;;;;;;;5096304;28;20595;-75
2021/01/19 11:20:10;;;;;;;3.87;1.63;;;;;;;;;;5092431;28;20533;-74
2021/01/19 11:22:44;;;;;;;2.67;1.40;;;;;;;;;;5077380;28;20892;-74
2021/01/19 11:25:38;;;;;;;2.60;1.40;;;;;;;;;;5093900;28;20806;-73
2021/01/19 11:28:09;;;;;;;5.40;2.40;;;;;;;;;;5100155;28;20455;-74
2021/01/19 11:30:41;;;;;;;3.17;1.60;;;;;;;;;;5098935;28;20447;-74
2021/01/19 11:33:09;;;;;;;2.20;1.30;;;;;;;;;;5100947;28;20444;-74
2021/01/19 11:35:58;;;;;;;1.80;0.97;;;;;;;;;;5104301;28;20522;-74
2021/01/19 11:38:29;;;;;;;4.43;1.80;;;;;;;;;;5099788;28;20522;-75
2021/01/19 11:41:08;;;;;;;2.40;1.60;;;;;;;;;;5100559;28;20452;-76
2021/01/19 11:43:36;;;;;;;4.63;2.27;;;;;;;;;;5099911;28;20452;-74
2021/01/19 11:46:09;;;;;;;2.57;1.30;;;;;;;;;;5099558;28;20871;-74
2021/01/19 11:48:39;;;;;;;2.30;1.30;;;;;;;;;;5099988;28;20467;-75
2021/01/19 11:51:07;;;;;;;3.87;1.80;;;;;;;;;;5098001;28;20899;-75
2021/01/19 11:53:39;;;;;;;2.60;1.40;;;;;;;;;;5084430;28;20915;-75
2021/01/19 11:56:21;;;;;;;1.90;1.20;;;;;;;;;;5081939;28;20650;-75
2021/01/19 11:58:56;;;;;;;2.53;1.57;;;;;;;;;;5076988;28;20868;-75
2021/01/19 12:01:26;;;;;;;2.40;1.30;;;;;;;;;;5079493;28;20463;-75
2021/01/19 12:07:13;;;;;;;;;;;;;;;;;;;;;
2021/01/19 12:09:47;;;;;;;2.50;1.50;;;;;;;;;;5084717;28;20503;-73
2021/01/19 12:12:23;;;;;;;2.23;1.33;;;;;;;;;;5100844;28;20463;-73
2021/01/19 12:14:50;;;;;;;2.00;1.27;;;;;;;;;;5097514;28;20479;-74
2021/01/19 12:17:31;;;;;;;1.90;1.30;;;;;;;;;;5098873;28;20451;-74
2021/01/19 12:20:22;;;;;;;3.00;1.87;;;;;;;;;;5093067;28;20459;-74
2021/01/19 12:23:18;;;;;;;3.10;1.53;;;;;;;;;;5097893;28;20436;-74
2021/01/19 12:25:48;;;;;;;2.47;1.60;;;;;;;;;;5099726;28;20883;-74
2021/01/19 12:28:18;;;;;;;2.47;1.57;;;;;;;;;;5098169;28;20500;-74
2021/01/19 12:30:50;;;;;;;2.00;1.40;;;;;;;;;;5099688;28;20447;-74
2021/01/19 12:33:32;;;;;;;1.80;1.10;;;;;;;;;;5100385;28;20455;-74
2021/01/19 12:36:28;;;;;;;1.53;0.83;;;;;;;;;;5094931;28;20484;-73
2021/01/19 12:39:13;;;;;;;3.57;1.93;;;;;;;;;;5079796;28;20449;-73
2021/01/19 12:41:41;;;;;;;4.27;2.47;;;;;;;;;;5079114;28;20463;-74
2021/01/19 12:44:08;;;;;;;15.63;7.90;;;;;;;;;;5081847;28;20785;-74
2021/01/19 12:46:40;;;;;;;3.00;1.37;;;;;;;;;;5099014;28;20464;-74
2021/01/19 12:49:15;;;;;;;5.17;1.50;;;;;;;;;;5098040;28;20456;-73
2021/01/19 12:51:53;;;;;;;2.60;1.40;;;;;;;;;;5098906;28;20455;-73
2021/01/19 12:54:25;;;;;;;2.80;1.73;;;;;;;;;;5099691;28;20484;-73
2021/01/19 12:56:56;;;;;;;2.00;1.27;;;;;;;;;;5098575;28;20463;-74
2021/01/19 12:59:25;;;;;;;3.17;1.37;;;;;;;;;;5098816;28;20459;-74
2021/01/19 13:02:05;;;;;;;3.67;1.63;;;;;;;;;;5099926;28;20448;-73
2021/01/19 13:04:46;;;;;;;2.47;1.47;;;;;;;;;;5097682;28;20472;-74
2021/01/19 13:07:16;;;;;;;2.60;1.50;;;;;;;;;;5097957;28;20467;-73
2021/01/19 13:09:50;;;;;;;2.87;1.50;;;;;;;;;;5098540;28;20467;-74
2021/01/19 13:12:20;;;;;;;2.50;1.57;;;;;;;;;;5098956;28;20467;-73
2021/01/19 13:15:02;;;;;;;3.53;2.40;;;;;;;;;;5099506;28;20560;-74
2021/01/19 13:17:36;;;;;;;3.87;2.33;;;;;;;;;;5097715;28;20541;-73
2021/01/19 13:20:09;;;;;;;3.67;2.40;;;;;;;;;;5098727;28;20444;-74
2021/01/19 13:22:46;;;;;;;3.43;2.10;;;;;;;;;;5099093;28;20452;-73
2021/01/19 13:25:40;;;;;;;4.40;2.10;;;;;;;;;;5081889;28;20734;-74
2021/01/19 13:28:07;;;;;;;6.73;2.70;;;;;;;;;;5097489;28;20462;-73
2021/01/19 13:30:37;;;;;;;3.07;2.30;;;;;;;;;;5098722;28;20474;-73
2021/01/19 13:33:07;;;;;;;1.80;1.23;;;;;;;;;;5097002;28;20494;-72
2021/01/19 13:35:49;;;;;;;3.60;2.47;;;;;;;;;;5099012;28;20499;-73
2021/01/19 13:38:42;;;;;;;2.60;2.13;;;;;;;;;;5097785;28;20460;-74
2021/01/19 13:41:17;;;;;;;3.77;2.50;;;;;;;;;;5096935;28;20463;-73
2021/01/19 13:43:55;;;;;;;3.90;2.70;;;;;;;;;;5100101;28;20542;-74
2021/01/19 13:46:28;;;;;;;5.27;3.23;;;;;;;;;;5098124;28;20448;-74
2021/01/19 13:48:59;;;;;;;3.67;2.43;;;;;;;;;;5097126;28;20541;-74
2021/01/19 13:51:26;;;;;;;5.13;2.93;;;;;;;;;;5095925;28;20470;-74
2021/01/19 13:53:56;;;;;;;4.70;2.10;;;;;;;;;;5096444;28;20494;-74
2021/01/19 13:56:25;;;;;;;3.30;1.87;;;;;;;;;;5094302;28;20487;-72
2021/01/19 13:59:03;;;;;;;3.67;2.40;;;;;;;;;;5095127;28;20452;-72
2021/01/19 14:01:32;;;;;;;4.37;3.17;;;;;;;;;;5096632;28;20456;-74
2021/01/19 14:04:04;;;;;;;5.83;3.60;;;;;;;;;;5098954;28;20487;-74
2021/01/19 14:06:48;;;;;;;3.53;2.20;;;;;;;;;;5097216;28;20640;-73
2021/01/19 14:09:33;;;;;;;7.27;4.13;;;;;;;;;;5100438;28;20480;-73
2021/01/19 14:12:14;;;;;;;4.17;3.23;;;;;;;;;;5098287;28;20496;-74
2021/01/19 14:15:09;;;;;;;3.87;2.70;;;;;;;;;;5099484;28;20476;-74
2021/01/19 14:20:49;;;;;;;4.70;2.93;;;;;;;;;;5058331;28;20455;-74
2021/01/19 14:23:51;;;;;;;3.63;2.67;;;;;;;;;;5098831;28;20453;-74
2021/01/19 14:26:50;;;;;;;3.20;2.40;;;;;;;;;;5098586;28;20464;-74
2021/01/19 14:29:21;;;;;;;2.37;1.50;;;;;;;;;;5098908;28;20452;-74
2021/01/19 14:32:06;;;;;;;2.90;1.53;;;;;;;;;;5098901;28;20764;-74
2021/01/19 14:34:42;;;;;;;2.63;2.10;;;;;;;;;;5099999;28;20541;-74
2021/01/19 14:37:10;;;;;;;2.70;2.20;;;;;;;;;;5099172;28;20561;-74
2021/01/19 14:39:38;;;;;;;3.70;1.30;;;;;;;;;;5096052;28;20448;-74
2021/01/19 14:42:06;;;;;;;2.10;1.33;;;;;;;;;;5096633;28;20459;-74
2021/01/19 14:45:02;;;;;;;2.87;1.73;;;;;;;;;;5094215;28;20449;-74
2021/01/19 14:47:41;;;;;;;6.47;2.07;;;;;;;;;;5097168;28;20437;-72
2021/01/19 14:50:21;;;;;;;2.77;1.70;;;;;;;;;;5096315;28;20482;-73
2021/01/19 14:52:58;;;;;;;2.40;1.40;;;;;;;;;;5095200;28;20451;-74
2021/01/19 14:55:45;;;;;;;2.90;1.80;;;;;;;;;;5095985;28;21180;-73
2021/01/19 14:58:30;;;;;;;2.23;1.60;;;;;;;;;;5095824;28;20486;-75
2021/01/19 15:04:33;;;;;;;2.57;1.60;;;;;;;;;;5081926;28;20590;-74
2021/01/19 15:07:27;;;;;;;3.60;2.03;;;;;;;;;;5084712;28;20887;-73
2021/01/19 15:10:16;;;;;;;3.70;1.87;;;;;;;;;;5093033;28;20443;-73
2021/01/19 15:13:12;;;;;;;2.93;1.70;;;;;;;;;;5066404;28;20464;-73